Flight Track Log - Related Links

Times and Time Zones

All times are in EDT time to prevent confusion due to time zone crossing. See the SWA2975 flight status page for this flight to view local times or setup timezone preferences in your user account.

Time Position Orientation Groundspeed Altitude Reporting Facility
EDT Latitude Longitude Course Direction KTS MPH feet Rate Location/Type
Fri 10:52:53 PM 41.8050 -87.7780 330° Northwest 174 200 2,300  Level FlightAware ADS-B
Fri 10:53:03 PM 41.8140 -87.7810 346° North 189 217 2,600 1,600 Climbing FlightAware ADS-B
Fri 10:53:23 PM 41.8290 -87.7720 24° Northeast 226 260 3,100 1,500 Climbing FlightAware ADS-B
Fri 10:53:35 PM 41.8360 -87.7560 60° Northeast 234 269 3,400 300 Climbing FlightAware ADS-B
Fri 10:54:03 PM 41.8310 -87.7160 100° East 232 267 3,300 -107 Descending FlightAware ADS-B
Fri 10:54:31 PM 41.8220 -87.6780 108° East 228 262 3,300 750 Level FlightAware ADS-B
Fri 10:54:59 PM 41.8230 -87.6370 88° East 263 303 4,000 2,308 Climbing FlightAware ADS-B
Fri 10:55:23 PM 41.8230 -87.5970 90° East 275 316 5,300 3,382 Climbing FlightAware ADS-B
Fri 10:56:49 PM 41.8060 -87.4410 98° East 300 345 10,200 2,798 Climbing FlightAware ADS-B
Fri 10:58:36 PM 41.7820 -87.2350 99° East 363 418 14,300 2,293 Climbing FlightAware ADS-B
Fri 10:59:26 PM 41.7680 -87.1170 99° East 388 447 16,200 2,108 Climbing FlightAware ADS-B
Fri 11:04:09 PM 41.7680 -86.3820 90° East 451 519 26,000 2,006 Climbing FlightAware ADS-B
Fri 11:04:58 PM 41.7800 -86.2530 83° East 453 521 27,300 1,551 Climbing FlightAware ADS-B
Fri 11:05:38 PM 41.7990 -86.1390 77° East 459 528 28,300 1,463 Climbing FlightAware ADS-B
Fri 11:06:20 PM 41.8190 -86.0210 77° East 463 533 29,300 1,674 Climbing FlightAware ADS-B
Fri 11:07:04 PM 41.8400 -85.8990 77° East 458 527 30,700 1,880 Climbing FlightAware ADS-B
Fri 11:07:43 PM 41.8580 -85.7950 77° East 451 519 31,900 1,571 Climbing FlightAware ADS-B
Fri 11:08:28 PM 41.8790 -85.6720 77° East 450 518 32,900 1,310 Climbing FlightAware ADS-B
Fri 11:09:10 PM 41.8980 -85.5570 77° East 450 518 33,800 1,059 Climbing FlightAware ADS-B
Fri 11:09:53 PM 41.9170 -85.4370 78° East 456 525 34,400 632 Climbing FlightAware ADS-B
Fri 11:10:26 PM 41.9320 -85.3460 77° East 465 535 34,600 295 Climbing FlightAware ADS-B
Fri 11:11:55 PM 41.9510 -85.1400 83° East 468 539 35,000 161 Climbing FlightAware ADS-B
Fri 11:12:55 PM 41.9500 -84.9250 90° East 470 541 35,000  Level FlightAware ADS-B
Fri 11:13:44 PM 41.9500 -84.7900 90° East 471 542 35,000  Level FlightAware ADS-B
Fri 11:14:31 PM 41.9720 -84.6360 79° East 471 542 35,000  Level FlightAware ADS-B
Fri 11:15:36 PM 41.9940 -84.4540 81° East 470 541 35,000  Level FlightAware ADS-B
Fri 11:16:18 PM 42.0070 -84.3340 82° East 467 537 35,000  Level FlightAware ADS-B
Fri 11:17:15 PM 42.0260 -84.1720 81° East 463 533 35,000  Level FlightAware ADS-B
Fri 11:18:01 PM 42.0410 -84.0410 81° East 463 533 35,000  Level FlightAware ADS-B
Fri 11:18:43 PM 42.0550 -83.9210 81° East 462 532 35,000  Level FlightAware ADS-B
Fri 11:19:23 PM 42.0680 -83.8100 81° East 461 531 35,000  Level FlightAware ADS-B
Fri 11:20:04 PM 42.0810 -83.6940 81° East 460 529 35,000  Level FlightAware ADS-B
Fri 11:20:47 PM 42.0940 -83.5710 82° East 458 527 35,000  Level FlightAware ADS-B
Fri 11:21:31 PM 42.1080 -83.4460 81° East 458 527 35,000  Level FlightAware ADS-B
Fri 11:22:15 PM 42.1220 -83.3220 81° East 458 527 35,000  Level FlightAware ADS-B
Fri 11:22:55 PM 42.1340 -83.2100 82° East 458 527 35,000  Level FlightAware ADS-B
Fri 11:23:35 PM 42.1450 -83.0990 82° East 457 526 35,000  Level FlightAware ADS-B
Fri 11:24:19 PM 42.1580 -82.9750 82° East 456 525 35,000  Level FlightAware ADS-B
Fri 11:25:00 PM 42.1710 -82.8570 82° East 453 521 35,000  Level FlightAware ADS-B
Fri 11:25:39 PM 42.1820 -82.7510 82° East 451 519 35,000  Level FlightAware ADS-B
Fri 11:26:27 PM 42.1950 -82.6190 82° East 449 517 35,000  Level FlightAware ADS-B
Fri 11:27:01 PM 42.2040 -82.5280 82° East 448 516 35,000  Level FlightAware ADS-B
Fri 11:27:49 PM 42.2180 -82.3910 82° East 444 511 35,000  Level FlightAware ADS-B
Fri 11:28:33 PM 42.2300 -82.2750 82° East 442 509 35,000  Level FlightAware ADS-B
Fri 11:29:11 PM 42.2400 -82.1690 83° East 443 510 35,000  Level FlightAware ADS-B
Fri 11:30:04 PM 42.2530 -82.0410 82° East 444 511 35,000  Level FlightAware ADS-B
Fri 11:30:52 PM 42.2660 -81.9050 83° East 445 512 35,000  Level FlightAware ADS-B
Fri 11:31:36 PM 42.2760 -81.7890 83° East 445 512 35,000  Level FlightAware ADS-B
Fri 11:32:14 PM 42.2860 -81.6830 83° East 445 512 35,000  Level FlightAware ADS-B
Fri 11:32:56 PM 42.2970 -81.5700 82° East 444 511 35,000  Level FlightAware ADS-B
Fri 11:33:47 PM 42.3100 -81.4270 83° East 443 510 35,000  Level FlightAware ADS-B
Fri 11:34:38 PM 42.3230 -81.2880 83° East 444 511 35,000  Level FlightAware ADS-B
Fri 11:35:31 PM 42.3360 -81.1400 83° East 443 510 35,000  Level FlightAware ADS-B
Fri 11:36:10 PM 42.3450 -81.0350 83° East 443 510 35,000  Level FlightAware ADS-B
Fri 11:36:56 PM 42.3560 -80.9080 83° East 444 511 35,000  Level FlightAware ADS-B
Fri 11:37:35 PM 42.3660 -80.8030 83° East 445 512 35,000  Level FlightAware ADS-B
Fri 11:38:17 PM 42.3760 -80.6830 84° East 446 513 35,000  Level FlightAware ADS-B
Fri 11:39:00 PM 42.3860 -80.5630 84° East 447 514 35,000  Level FlightAware ADS-B
Fri 11:39:42 PM 42.3970 -80.4290 84° East 450 518 35,000  Level FlightAware ADS-B
Fri 11:40:19 PM 42.4050 -80.3250 84° East 451 519 35,000  Level FlightAware ADS-B
Fri 11:41:07 PM 42.4160 -80.1910 84° East 451 519 35,000  Level FlightAware ADS-B
Fri 11:41:48 PM 42.4250 -80.0740 84° East 452 520 35,000  Level FlightAware ADS-B
Fri 11:42:34 PM 42.4350 -79.9500 84° East 453 521 35,000  Level FlightAware ADS-B
Fri 11:43:10 PM 42.4430 -79.8460 84° East 455 524 35,000  Level FlightAware ADS-B
Fri 11:43:55 PM 42.4530 -79.7170 84° East 458 527 35,000  Level FlightAware ADS-B
Fri 11:44:38 PM 42.4620 -79.5930 84° East 462 532 35,000  Level FlightAware ADS-B
Fri 11:45:12 PM 42.4690 -79.4960 84° East 465 535 35,000  Level FlightAware ADS-B
Fri 11:45:59 PM 42.4790 -79.3600 84° East 470 541 35,000  Level FlightAware ADS-B
Fri 11:46:45 PM 42.4890 -79.2230 84° East 476 548 35,000  Level FlightAware ADS-B
Fri 11:47:25 PM 42.4980 -79.1030 84° East 480 552 35,000  Level FlightAware ADS-B
Fri 11:48:09 PM 42.5070 -78.9740 85° East 478 550 35,000  Level FlightAware ADS-B
Fri 11:48:49 PM 42.5150 -78.8550 85° East 476 548 35,000  Level FlightAware ADS-B
Fri 11:49:31 PM 42.5230 -78.7300 85° East 474 545 35,000  Level FlightAware ADS-B
Fri 11:50:09 PM 42.5310 -78.6160 85° East 478 550 35,000  Level FlightAware ADS-B
Fri 11:50:57 PM 42.5400 -78.4750 85° East 478 550 35,000  Level FlightAware ADS-B
Fri 11:51:37 PM 42.5480 -78.3560 85° East 476 548 35,000  Level FlightAware ADS-B
Fri 11:52:21 PM 42.5560 -78.2270 85° East 476 548 35,000  Level FlightAware ADS-B
Fri 11:53:01 PM 42.5630 -78.1060 85° East 479 551 35,000  Level FlightAware ADS-B
Fri 11:53:39 PM 42.5700 -77.9920 85° East 479 551 35,000  Level FlightAware ADS-B
Fri 11:54:27 PM 42.5790 -77.8500 85° East 482 555 35,000  Level FlightAware ADS-B
Fri 11:55:05 PM 42.5860 -77.7360 85° East 484 557 35,000  Level FlightAware ADS-B
Fri 11:55:43 PM 42.5920 -77.6220 86° East 487 560 35,000  Level FlightAware ADS-B
Fri 11:56:32 PM 42.6010 -77.4680 85° East 489 563 35,000 -404 Level FlightAware ADS-B
Fri 11:57:12 PM 42.6070 -77.3460 86° East 485 558 34,400 -929 Descending FlightAware ADS-B
Fri 11:57:56 PM 42.6150 -77.2120 85° East 485 558 33,700 -929 Descending FlightAware ADS-B
Fri 11:58:36 PM 42.6220 -77.0920 85° East 482 555 33,100 -977 Descending FlightAware ADS-B
Fri 11:59:22 PM 42.6290 -76.9530 86° East 491 565 32,300 -1,098 Descending FlightAware ADS-B
Fri 11:59:58 PM 42.6340 -76.8440 86° East 494 568 31,600 -1,390 Descending FlightAware ADS-B
Sat 12:00:44 AM 42.6420 -76.7000 86° East 498 573 30,400 -1,600 Descending FlightAware ADS-B
Sat 12:01:28 AM 42.6480 -76.5630 87° East 504 580 29,200 -1,286 Descending FlightAware ADS-B
Sat 12:02:08 AM 42.6540 -76.4370 86° East 505 581 28,600 -951 Descending FlightAware ADS-B
Sat 12:02:50 AM 42.6600 -76.3030 86° East 508 585 27,900 -1,171 Descending FlightAware ADS-B
Sat 12:03:30 AM 42.6660 -76.1760 86° East 504 580 27,000 -1,756 Descending FlightAware ADS-B
Sat 12:04:12 AM 42.6720 -76.0440 86° East 489 563 25,500 -1,744 Descending FlightAware ADS-B
Sat 12:04:56 AM 42.6770 -75.9130 87° East 469 540 24,500 -1,214 Descending FlightAware ADS-B
Sat 12:05:36 AM 42.6820 -75.7970 87° East 460 529 23,800 -1,350 Descending FlightAware ADS-B
Sat 12:06:16 AM 42.6870 -75.6830 87° East 450 518 22,700 -1,650 Descending FlightAware ADS-B
Sat 12:06:56 AM 42.6910 -75.5690 87° East 441 507 21,600 -1,605 Descending FlightAware ADS-B
Sat 12:07:42 AM 42.6960 -75.4420 87° East 439 505 20,400 -1,533 Descending FlightAware ADS-B
Sat 12:08:26 AM 42.7010 -75.3230 87° East 429 494 19,300 -1,465 Descending FlightAware ADS-B
Sat 12:09:08 AM 42.7050 -75.2130 87° East 421 484 18,300 -1,500 Descending FlightAware ADS-B
Sat 12:09:46 AM 42.7080 -75.1140 88° East 412 474 17,300 -1,537 Descending FlightAware ADS-B
Sat 12:10:30 AM 42.7120 -74.9990 87° East 408 470 16,200 -1,107 Descending FlightAware ADS-B
Sat 12:11:29 AM 42.7180 -74.8620 87° East 400 460 15,400 -788 Descending FlightAware ADS-B
Sat 12:12:09 AM 42.7200 -74.7810 88° East 397 457 14,900 -349 Descending FlightAware ADS-B
Sat 12:12:55 AM 42.7240 -74.6840 87° East 397 457 14,900 -2,523 Level FlightAware ADS-B
Sat 12:13:37 AM 42.7247 -74.5486 87° East 386 444 11,200 -3,583 Descending Boston Center
Sat 12:14:07 AM 42.7281 -74.4836 86° East 373 429 10,600 -1,000 Descending Boston Center
Sat 12:14:37 AM 42.7292 -74.4214 89° East 372 428 10,200 -1,082 Descending Boston Center
Sat 12:15:08 AM 42.7344 -74.3453 85° East 338 389 9,500 -1,055 Descending Boston Center
Sat 12:16:08 AM 42.7156 -74.2372 103° East 286 329 8,600 -1,091 Descending Boston Center
Sat 12:17:09 AM 42.6772 -74.1431 119° Southeast 273 314 7,300 -1,438 Descending Boston Center
Sat 12:18:09 AM 42.6411 -74.0517 118° Southeast 276 318 5,700 -1,140 Descending Boston Center
Sat 12:19:10 AM 42.5792 -74.0106 154° Southeast 248 285 5,000 -703 Descending Boston Center
Sat 12:20:17 AM 42.5131 -73.9611 151° Southeast 223 257 4,200 -606 Descending Boston Center
Sat 12:20:49 AM 42.5050 -73.9467 127° Southeast 235 270 4,000 -130 Descending Boston Center
Sat 12:21:49 AM 42.4919 -73.8394 99° East 228 262 4,000 -400 Level Boston Center
Sat 12:22:49 AM 42.5422 -73.7983 31° Northeast 167 192 3,200 -733 Descending Boston Center
Sat 12:23:19 AM 42.5653 -73.7989 359° North 202 232 2,900 -200 Descending Boston Center
Sat 12:23:49 AM 42.5903 -73.7994 359° North 152 175 3,000 -400 Climbing Boston Center
Sat 12:24:19 AM 42.6194 -73.8000 359° North 182 209 2,500 -900 Descending Boston Center
Sat 12:24:49 AM 42.6422 -73.8033 354° North 165 190 2,100 -984 Descending Boston Center
Sat 12:25:20 AM 42.6714 -73.8039 359° North 176 203 1,500 -847 Descending Boston Center
Sat 12:26:14 AM 42.7069 -73.8047 359° North 152 175 900 -667 Descending Boston Center

Login

Don't have an account? Register now (free) for customized features, flight alerts, and more!